sensor_id;sensor_type;location;lat;lon;timestamp;temperature;humidity
11136;DHT22;5622;50.840;4.948;2023-03-19T00:00:07;10.80;99.90
11136;DHT22;5622;50.840;4.948;2023-03-19T00:02:36;10.80;99.90
11136;DHT22;5622;50.840;4.948;2023-03-19T00:05:03;10.80;99.90
11136;DHT22;5622;50.840;4.948;2023-03-19T00:07:31;10.80;99.90
11136;DHT22;5622;50.840;4.948;2023-03-19T00:09:58;10.80;99.90
11136;DHT22;5622;50.840;4.948;2023-03-19T00:12:25;10.80;99.90
11136;DHT22;5622;50.840;4.948;2023-03-19T00:14:53;10.80;99.90
11136;DHT22;5622;50.840;4.948;2023-03-19T00:17:21;10.80;99.90
11136;DHT22;5622;50.840;4.948;2023-03-19T00:19:48;10.80;99.90
11136;DHT22;5622;50.840;4.948;2023-03-19T00:22:15;10.80;99.90
11136;DHT22;5622;50.840;4.948;2023-03-19T00:24:42;10.80;99.90
11136;DHT22;5622;50.840;4.948;2023-03-19T00:27:09;10.80;99.90
11136;DHT22;5622;50.840;4.948;2023-03-19T00:29:37;10.80;99.90
11136;DHT22;5622;50.840;4.948;2023-03-19T00:32:06;10.80;99.90
11136;DHT22;5622;50.840;4.948;2023-03-19T00:34:34;10.80;99.90
11136;DHT22;5622;50.840;4.948;2023-03-19T00:37:01;10.80;99.90
11136;DHT22;5622;50.840;4.948;2023-03-19T00:39:28;10.80;99.90
11136;DHT22;5622;50.840;4.948;2023-03-19T00:41:55;10.80;99.90
11136;DHT22;5622;50.840;4.948;2023-03-19T00:44:22;10.80;99.90
11136;DHT22;5622;50.840;4.948;2023-03-19T00:46:49;10.70;99.90
11136;DHT22;5622;50.840;4.948;2023-03-19T00:49:18;10.80;99.90
11136;DHT22;5622;50.840;4.948;2023-03-19T00:51:45;10.80;99.90
11136;DHT22;5622;50.840;4.948;2023-03-19T00:54:12;10.70;99.90
11136;DHT22;5622;50.840;4.948;2023-03-19T00:56:39;10.80;99.90
11136;DHT22;5622;50.840;4.948;2023-03-19T00:59:06;10.80;99.90
11136;DHT22;5622;50.840;4.948;2023-03-19T01:01:34;10.80;99.90
11136;DHT22;5622;50.840;4.948;2023-03-19T01:04:01;10.80;99.90
11136;DHT22;5622;50.840;4.948;2023-03-19T01:06:29;10.70;99.90
11136;DHT22;5622;50.840;4.948;2023-03-19T01:08:56;10.80;99.90
11136;DHT22;5622;50.840;4.948;2023-03-19T01:11:23;10.70;99.90
11136;DHT22;5622;50.840;4.948;2023-03-19T01:13:51;10.80;99.90
11136;DHT22;5622;50.840;4.948;2023-03-19T01:16:18;10.80;99.90
11136;DHT22;5622;50.840;4.948;2023-03-19T01:18:45;10.70;99.90
11136;DHT22;5622;50.840;4.948;2023-03-19T01:21:12;10.80;99.90
11136;DHT22;5622;50.840;4.948;2023-03-19T01:23:41;10.80;99.90
11136;DHT22;5622;50.840;4.948;2023-03-19T01:26:08;10.80;99.90
11136;DHT22;5622;50.840;4.948;2023-03-19T01:28:35;10.80;99.90
11136;DHT22;5622;50.840;4.948;2023-03-19T01:31:05;10.80;99.90
11136;DHT22;5622;50.840;4.948;2023-03-19T01:33:33;10.80;99.90
11136;DHT22;5622;50.840;4.948;2023-03-19T01:36:00;10.80;99.90
11136;DHT22;5622;50.840;4.948;2023-03-19T01:38:30;10.80;99.90
11136;DHT22;5622;50.840;4.948;2023-03-19T01:40:59;10.70;99.90
11136;DHT22;5622;50.840;4.948;2023-03-19T01:43:28;10.70;99.90
11136;DHT22;5622;50.840;4.948;2023-03-19T01:45:59;10.70;99.90
11136;DHT22;5622;50.840;4.948;2023-03-19T01:48:34;10.70;99.90
11136;DHT22;5622;50.840;4.948;2023-03-19T01:51:03;10.70;99.90
11136;DHT22;5622;50.840;4.948;2023-03-19T01:53:33;10.80;99.90
11136;DHT22;5622;50.840;4.948;2023-03-19T01:56:08;10.80;99.90
11136;DHT22;5622;50.840;4.948;2023-03-19T01:58:36;10.80;99.90
11136;DHT22;5622;50.840;4.948;2023-03-19T02:01:04;10.80;99.90
11136;DHT22;5622;50.840;4.948;2023-03-19T02:03:32;10.80;99.90
11136;DHT22;5622;50.840;4.948;2023-03-19T02:06:00;10.80;99.90
11136;DHT22;5622;50.840;4.948;2023-03-19T02:08:28;10.80;99.90
11136;DHT22;5622;50.840;4.948;2023-03-19T02:10:56;10.80;99.90
11136;DHT22;5622;50.840;4.948;2023-03-19T02:13:26;10.80;99.90
11136;DHT22;5622;50.840;4.948;2023-03-19T02:15:54;10.80;99.90
11136;DHT22;5622;50.840;4.948;2023-03-19T02:18:22;10.80;99.90
11136;DHT22;5622;50.840;4.948;2023-03-19T02:20:54;10.80;99.90
11136;DHT22;5622;50.840;4.948;2023-03-19T02:23:32;10.80;99.90
11136;DHT22;5622;50.840;4.948;2023-03-19T02:26:06;10.80;99.90
11136;DHT22;5622;50.840;4.948;2023-03-19T02:28:36;10.80;99.90
11136;DHT22;5622;50.840;4.948;2023-03-19T02:31:05;10.80;99.90
11136;DHT22;5622;50.840;4.948;2023-03-19T02:33:32;10.80;99.90
11136;DHT22;5622;50.840;4.948;2023-03-19T02:36:00;10.80;99.90
11136;DHT22;5622;50.840;4.948;2023-03-19T02:38:29;10.80;99.90
11136;DHT22;5622;50.840;4.948;2023-03-19T02:41:00;10.80;99.90
11136;DHT22;5622;50.840;4.948;2023-03-19T02:43:31;10.80;99.90
11136;DHT22;5622;50.840;4.948;2023-03-19T02:45:59;10.80;99.90
11136;DHT22;5622;50.840;4.948;2023-03-19T02:48:26;10.80;99.90
11136;DHT22;5622;50.840;4.948;2023-03-19T02:50:53;10.80;99.90
11136;DHT22;5622;50.840;4.948;2023-03-19T02:53:21;10.70;99.90
11136;DHT22;5622;50.840;4.948;2023-03-19T02:55:48;10.70;99.90
11136;DHT22;5622;50.840;4.948;2023-03-19T02:58:15;10.80;99.90
11136;DHT22;5622;50.840;4.948;2023-03-19T03:00:44;10.70;99.90
11136;DHT22;5622;50.840;4.948;2023-03-19T03:03:12;10.70;99.90
11136;DHT22;5622;50.840;4.948;2023-03-19T03:05:39;10.80;99.90
11136;DHT22;5622;50.840;4.948;2023-03-19T03:08:06;10.70;99.90
11136;DHT22;5622;50.840;4.948;2023-03-19T03:10:34;10.70;99.90
11136;DHT22;5622;50.840;4.948;2023-03-19T03:13:01;10.70;99.90
11136;DHT22;5622;50.840;4.948;2023-03-19T03:15:30;10.80;99.90
11136;DHT22;5622;50.840;4.948;2023-03-19T03:17:59;10.70;99.90
11136;DHT22;5622;50.840;4.948;2023-03-19T03:20:26;10.80;99.90
11136;DHT22;5622;50.840;4.948;2023-03-19T03:22:53;10.70;99.90
11136;DHT22;5622;50.840;4.948;2023-03-19T03:25:21;10.70;99.90
11136;DHT22;5622;50.840;4.948;2023-03-19T03:27:48;10.70;99.90
11136;DHT22;5622;50.840;4.948;2023-03-19T03:30:15;10.70;99.90
11136;DHT22;5622;50.840;4.948;2023-03-19T03:32:43;10.80;99.90
11136;DHT22;5622;50.840;4.948;2023-03-19T03:35:11;10.80;99.90
11136;DHT22;5622;50.840;4.948;2023-03-19T03:37:43;10.70;99.90
11136;DHT22;5622;50.840;4.948;2023-03-19T03:40:10;10.70;99.90
11136;DHT22;5622;50.840;4.948;2023-03-19T03:42:38;10.70;99.90
11136;DHT22;5622;50.840;4.948;2023-03-19T03:45:07;10.80;99.90
11136;DHT22;5622;50.840;4.948;2023-03-19T03:47:35;10.70;99.90
11136;DHT22;5622;50.840;4.948;2023-03-19T03:50:04;10.80;99.90
11136;DHT22;5622;50.840;4.948;2023-03-19T03:52:33;10.70;99.90
11136;DHT22;5622;50.840;4.948;2023-03-19T03:55:01;10.80;99.90
11136;DHT22;5622;50.840;4.948;2023-03-19T03:57:28;10.70;99.90
11136;DHT22;5622;50.840;4.948;2023-03-19T03:59:55;10.70;99.90
11136;DHT22;5622;50.840;4.948;2023-03-19T04:02:23;10.80;99.90
11136;DHT22;5622;50.840;4.948;2023-03-19T04:04:50;10.80;99.90
11136;DHT22;5622;50.840;4.948;2023-03-19T04:07:17;10.80;99.90
11136;DHT22;5622;50.840;4.948;2023-03-19T04:09:46;10.70;99.90
11136;DHT22;5622;50.840;4.948;2023-03-19T04:12:14;10.70;99.90
11136;DHT22;5622;50.840;4.948;2023-03-19T04:14:41;10.70;99.90
11136;DHT22;5622;50.840;4.948;2023-03-19T04:17:09;10.70;99.90
11136;DHT22;5622;50.840;4.948;2023-03-19T04:19:36;10.70;99.90
11136;DHT22;5622;50.840;4.948;2023-03-19T04:22:04;10.70;99.90
11136;DHT22;5622;50.840;4.948;2023-03-19T04:24:32;10.70;99.90
11136;DHT22;5622;50.840;4.948;2023-03-19T04:27:00;10.70;99.90
11136;DHT22;5622;50.840;4.948;2023-03-19T04:29:27;10.70;99.90
11136;DHT22;5622;50.840;4.948;2023-03-19T04:31:55;10.70;99.90
11136;DHT22;5622;50.840;4.948;2023-03-19T04:34:22;10.70;99.90
11136;DHT22;5622;50.840;4.948;2023-03-19T04:36:49;10.60;99.90
11136;DHT22;5622;50.840;4.948;2023-03-19T04:39:16;10.60;99.90
11136;DHT22;5622;50.840;4.948;2023-03-19T04:41:44;10.60;99.90
11136;DHT22;5622;50.840;4.948;2023-03-19T04:44:12;10.60;99.90
11136;DHT22;5622;50.840;4.948;2023-03-19T04:46:40;10.60;99.90
11136;DHT22;5622;50.840;4.948;2023-03-19T04:49:09;10.70;99.90
11136;DHT22;5622;50.840;4.948;2023-03-19T04:51:36;10.70;99.90
11136;DHT22;5622;50.840;4.948;2023-03-19T04:54:03;10.70;99.90
11136;DHT22;5622;50.840;4.948;2023-03-19T04:56:31;10.70;99.90
11136;DHT22;5622;50.840;4.948;2023-03-19T04:58:58;10.70;99.90
11136;DHT22;5622;50.840;4.948;2023-03-19T05:01:27;10.70;99.90
11136;DHT22;5622;50.840;4.948;2023-03-19T05:03:54;10.70;99.90
11136;DHT22;5622;50.840;4.948;2023-03-19T05:06:21;10.70;99.90
11136;DHT22;5622;50.840;4.948;2023-03-19T05:08:49;10.70;99.90
11136;DHT22;5622;50.840;4.948;2023-03-19T05:11:16;10.60;99.90
11136;DHT22;5622;50.840;4.948;2023-03-19T05:13:43;10.60;99.90
11136;DHT22;5622;50.840;4.948;2023-03-19T05:16:10;10.60;99.90
11136;DHT22;5622;50.840;4.948;2023-03-19T05:18:39;10.50;99.90
11136;DHT22;5622;50.840;4.948;2023-03-19T05:21:09;10.50;99.90
11136;DHT22;5622;50.840;4.948;2023-03-19T05:23:37;10.50;99.90
11136;DHT22;5622;50.840;4.948;2023-03-19T05:26:04;10.50;99.90
11136;DHT22;5622;50.840;4.948;2023-03-19T05:28:32;10.50;99.90
11136;DHT22;5622;50.840;4.948;2023-03-19T05:30:59;10.50;99.90
11136;DHT22;5622;50.840;4.948;2023-03-19T05:33:26;10.40;99.90
11136;DHT22;5622;50.840;4.948;2023-03-19T05:35:55;10.40;99.90
11136;DHT22;5622;50.840;4.948;2023-03-19T05:38:22;10.40;99.90
11136;DHT22;5622;50.840;4.948;2023-03-19T05:40:49;10.40;99.90
11136;DHT22;5622;50.840;4.948;2023-03-19T05:43:17;10.40;99.90
11136;DHT22;5622;50.840;4.948;2023-03-19T05:45:49;10.40;99.90
11136;DHT22;5622;50.840;4.948;2023-03-19T05:48:16;10.30;99.90
11136;DHT22;5622;50.840;4.948;2023-03-19T05:50:44;10.30;99.90
11136;DHT22;5622;50.840;4.948;2023-03-19T05:53:12;10.30;99.90
11136;DHT22;5622;50.840;4.948;2023-03-19T05:55:39;10.30;99.90
11136;DHT22;5622;50.840;4.948;2023-03-19T05:58:06;10.20;99.90
11136;DHT22;5622;50.840;4.948;2023-03-19T06:00:34;10.20;99.90
11136;DHT22;5622;50.840;4.948;2023-03-19T06:03:01;10.20;99.90
11136;DHT22;5622;50.840;4.948;2023-03-19T06:05:28;10.10;99.90
11136;DHT22;5622;50.840;4.948;2023-03-19T06:07:56;10.10;99.90
11136;DHT22;5622;50.840;4.948;2023-03-19T06:10:25;10.10;99.90
11136;DHT22;5622;50.840;4.948;2023-03-19T06:12:52;10.10;99.90
11136;DHT22;5622;50.840;4.948;2023-03-19T06:15:19;10.00;99.90
11136;DHT22;5622;50.840;4.948;2023-03-19T06:17:46;10.00;99.90
11136;DHT22;5622;50.840;4.948;2023-03-19T06:20:13;10.00;99.90
11136;DHT22;5622;50.840;4.948;2023-03-19T06:22:41;10.00;99.90
11136;DHT22;5622;50.840;4.948;2023-03-19T06:25:08;10.00;99.90
11136;DHT22;5622;50.840;4.948;2023-03-19T06:27:37;10.00;99.90
11136;DHT22;5622;50.840;4.948;2023-03-19T06:30:05;10.00;99.90
11136;DHT22;5622;50.840;4.948;2023-03-19T06:32:34;10.00;99.90
11136;DHT22;5622;50.840;4.948;2023-03-19T06:35:01;10.00;99.90
11136;DHT22;5622;50.840;4.948;2023-03-19T06:37:29;10.00;99.90
11136;DHT22;5622;50.840;4.948;2023-03-19T06:39:56;10.00;99.90
11136;DHT22;5622;50.840;4.948;2023-03-19T06:42:23;10.00;99.90
11136;DHT22;5622;50.840;4.948;2023-03-19T06:44:52;10.00;99.90
11136;DHT22;5622;50.840;4.948;2023-03-19T06:47:19;10.00;99.90
11136;DHT22;5622;50.840;4.948;2023-03-19T06:49:46;10.10;99.90
11136;DHT22;5622;50.840;4.948;2023-03-19T06:52:13;10.10;99.90
11136;DHT22;5622;50.840;4.948;2023-03-19T06:54:40;10.20;99.90
11136;DHT22;5622;50.840;4.948;2023-03-19T06:57:07;10.20;99.90
11136;DHT22;5622;50.840;4.948;2023-03-19T06:59:35;10.30;99.90
11136;DHT22;5622;50.840;4.948;2023-03-19T07:02:03;10.30;99.90
11136;DHT22;5622;50.840;4.948;2023-03-19T07:04:30;10.40;99.90
11136;DHT22;5622;50.840;4.948;2023-03-19T07:06:58;10.40;99.90
11136;DHT22;5622;50.840;4.948;2023-03-19T07:09:27;10.40;99.90
11136;DHT22;5622;50.840;4.948;2023-03-19T07:11:54;10.50;99.90
11136;DHT22;5622;50.840;4.948;2023-03-19T07:14:22;10.50;99.90
11136;DHT22;5622;50.840;4.948;2023-03-19T07:16:49;10.50;99.90
11136;DHT22;5622;50.840;4.948;2023-03-19T07:19:18;10.50;99.90
11136;DHT22;5622;50.840;4.948;2023-03-19T07:21:45;10.60;99.90
11136;DHT22;5622;50.840;4.948;2023-03-19T07:24:12;10.60;99.90
11136;DHT22;5622;50.840;4.948;2023-03-19T07:26:39;10.70;99.90
11136;DHT22;5622;50.840;4.948;2023-03-19T07:29:07;10.70;99.90
11136;DHT22;5622;50.840;4.948;2023-03-19T07:31:34;10.70;99.90
11136;DHT22;5622;50.840;4.948;2023-03-19T07:34:01;10.70;99.90
11136;DHT22;5622;50.840;4.948;2023-03-19T07:36:30;10.70;99.90
11136;DHT22;5622;50.840;4.948;2023-03-19T07:38:57;10.70;99.90
11136;DHT22;5622;50.840;4.948;2023-03-19T07:41:24;10.70;99.90
11136;DHT22;5622;50.840;4.948;2023-03-19T07:43:51;10.70;99.90
11136;DHT22;5622;50.840;4.948;2023-03-19T07:46:18;10.70;99.90
11136;DHT22;5622;50.840;4.948;2023-03-19T07:48:46;10.60;99.90
11136;DHT22;5622;50.840;4.948;2023-03-19T07:51:13;10.70;99.90
11136;DHT22;5622;50.840;4.948;2023-03-19T07:53:41;10.60;99.90
11136;DHT22;5622;50.840;4.948;2023-03-19T07:56:08;10.60;99.90
11136;DHT22;5622;50.840;4.948;2023-03-19T07:58:36;10.70;99.90
11136;DHT22;5622;50.840;4.948;2023-03-19T08:01:03;10.60;99.90
11136;DHT22;5622;50.840;4.948;2023-03-19T08:03:30;10.70;99.90
11136;DHT22;5622;50.840;4.948;2023-03-19T08:05:58;10.70;99.90
11136;DHT22;5622;50.840;4.948;2023-03-19T08:08:25;10.90;99.90
11136;DHT22;5622;50.840;4.948;2023-03-19T08:10:54;11.40;99.90
11136;DHT22;5622;50.840;4.948;2023-03-19T08:13:22;11.80;99.90
11136;DHT22;5622;50.840;4.948;2023-03-19T08:15:49;12.20;99.90
11136;DHT22;5622;50.840;4.948;2023-03-19T08:18:18;12.30;99.90
11136;DHT22;5622;50.840;4.948;2023-03-19T08:20:45;12.50;99.90
11136;DHT22;5622;50.840;4.948;2023-03-19T08:23:13;12.50;99.90
11136;DHT22;5622;50.840;4.948;2023-03-19T08:25:40;12.40;99.90
11136;DHT22;5622;50.840;4.948;2023-03-19T08:28:09;12.40;99.90
11136;DHT22;5622;50.840;4.948;2023-03-19T08:30:37;12.40;99.90
11136;DHT22;5622;50.840;4.948;2023-03-19T08:33:05;12.50;99.90
11136;DHT22;5622;50.840;4.948;2023-03-19T08:35:33;12.70;99.90
11136;DHT22;5622;50.840;4.948;2023-03-19T08:38:00;12.80;99.90
11136;DHT22;5622;50.840;4.948;2023-03-19T08:40:27;12.90;99.90
11136;DHT22;5622;50.840;4.948;2023-03-19T08:42:54;13.00;99.90
11136;DHT22;5622;50.840;4.948;2023-03-19T08:45:23;13.10;99.90
11136;DHT22;5622;50.840;4.948;2023-03-19T11:13:19;16.30;99.90
11136;DHT22;5622;50.840;4.948;2023-03-19T11:15:48;16.20;99.90
11136;DHT22;5622;50.840;4.948;2023-03-19T11:18:20;16.00;99.90
11136;DHT22;5622;50.840;4.948;2023-03-19T11:20:52;15.80;99.90
11136;DHT22;5622;50.840;4.948;2023-03-19T11:23:31;15.60;99.90
11136;DHT22;5622;50.840;4.948;2023-03-19T11:26:03;15.40;99.90
11136;DHT22;5622;50.840;4.948;2023-03-19T11:28:36;15.30;99.90
11136;DHT22;5622;50.840;4.948;2023-03-19T11:31:13;15.00;99.90
11136;DHT22;5622;50.840;4.948;2023-03-19T11:33:59;14.90;99.90
11136;DHT22;5622;50.840;4.948;2023-03-19T11:36:32;14.70;99.90
11136;DHT22;5622;50.840;4.948;2023-03-19T11:39:17;14.60;99.90
11136;DHT22;5622;50.840;4.948;2023-03-19T11:41:57;14.60;99.90
11136;DHT22;5622;50.840;4.948;2023-03-19T11:44:36;14.60;99.90
11136;DHT22;5622;50.840;4.948;2023-03-19T11:47:09;14.50;99.90
11136;DHT22;5622;50.840;4.948;2023-03-19T11:49:50;14.50;99.90
11136;DHT22;5622;50.840;4.948;2023-03-19T11:52:26;14.50;99.90
11136;DHT22;5622;50.840;4.948;2023-03-19T11:55:10;14.50;99.90
11136;DHT22;5622;50.840;4.948;2023-03-19T11:57:57;14.40;99.90
11136;DHT22;5622;50.840;4.948;2023-03-19T12:00:31;14.30;99.90
11136;DHT22;5622;50.840;4.948;2023-03-19T12:03:26;14.30;99.90
11136;DHT22;5622;50.840;4.948;2023-03-19T12:05:59;14.30;99.90
11136;DHT22;5622;50.840;4.948;2023-03-19T12:08:35;14.30;99.90
11136;DHT22;5622;50.840;4.948;2023-03-19T12:11:15;15.20;99.90
11136;DHT22;5622;50.840;4.948;2023-03-19T12:13:57;14.50;99.90
11136;DHT22;5622;50.840;4.948;2023-03-19T12:16:39;14.50;99.90
11136;DHT22;5622;50.840;4.948;2023-03-19T12:22:18;14.60;99.90
11136;DHT22;5622;50.840;4.948;2023-03-19T12:25:08;14.80;99.90
11136;DHT22;5622;50.840;4.948;2023-03-19T12:27:49;14.80;99.90
11136;DHT22;5622;50.840;4.948;2023-03-19T12:30:27;14.90;99.90
11136;DHT22;5622;50.840;4.948;2023-03-19T12:33:15;14.80;99.90
11136;DHT22;5622;50.840;4.948;2023-03-19T12:35:50;14.80;99.90
11136;DHT22;5622;50.840;4.948;2023-03-19T12:38:23;14.70;99.90
11136;DHT22;5622;50.840;4.948;2023-03-19T12:40:56;14.80;99.90
11136;DHT22;5622;50.840;4.948;2023-03-19T12:43:31;14.80;99.90
11136;DHT22;5622;50.840;4.948;2023-03-19T12:46:06;14.70;99.90
11136;DHT22;5622;50.840;4.948;2023-03-19T14:06:29;14.10;99.90
11136;DHT22;5622;50.840;4.948;2023-03-19T14:08:58;14.10;99.90
11136;DHT22;5622;50.840;4.948;2023-03-19T14:11:34;14.10;99.90
11136;DHT22;5622;50.840;4.948;2023-03-19T14:14:30;14.00;99.90
11136;DHT22;5622;50.840;4.948;2023-03-19T14:17:10;13.90;99.90
11136;DHT22;5622;50.840;4.948;2023-03-19T14:19:41;13.80;99.90
11136;DHT22;5622;50.840;4.948;2023-03-19T14:22:19;13.90;99.90
11136;DHT22;5622;50.840;4.948;2023-03-19T14:25:10;13.80;99.90
11136;DHT22;5622;50.840;4.948;2023-03-19T14:27:43;13.80;99.90
11136;DHT22;5622;50.840;4.948;2023-03-19T14:30:25;13.70;99.90
11136;DHT22;5622;50.840;4.948;2023-03-19T14:32:58;13.80;99.90
11136;DHT22;5622;50.840;4.948;2023-03-19T14:35:35;13.80;99.90
11136;DHT22;5622;50.840;4.948;2023-03-19T14:38:24;13.70;99.90
11136;DHT22;5622;50.840;4.948;2023-03-19T14:40:58;13.40;99.90
11136;DHT22;5622;50.840;4.948;2023-03-19T14:43:45;13.70;99.90
11136;DHT22;5622;50.840;4.948;2023-03-19T14:46:32;13.70;99.90
11136;DHT22;5622;50.840;4.948;2023-03-19T14:49:55;13.70;99.90
11136;DHT22;5622;50.840;4.948;2023-03-19T14:52:26;13.70;99.90
11136;DHT22;5622;50.840;4.948;2023-03-19T14:55:08;13.80;99.90
11136;DHT22;5622;50.840;4.948;2023-03-19T14:57:52;13.70;99.90
11136;DHT22;5622;50.840;4.948;2023-03-19T15:00:23;13.80;99.90
11136;DHT22;5622;50.840;4.948;2023-03-19T15:02:58;13.70;99.90
11136;DHT22;5622;50.840;4.948;2023-03-19T15:05:30;13.80;99.90
11136;DHT22;5622;50.840;4.948;2023-03-19T15:08:04;14.10;99.90
11136;DHT22;5622;50.840;4.948;2023-03-19T15:11:19;13.90;99.90
11136;DHT22;5622;50.840;4.948;2023-03-19T15:16:55;13.80;99.90
11136;DHT22;5622;50.840;4.948;2023-03-19T15:19:37;13.80;99.90
11136;DHT22;5622;50.840;4.948;2023-03-19T15:22:12;13.90;99.90
11136;DHT22;5622;50.840;4.948;2023-03-19T15:24:48;13.90;99.90
11136;DHT22;5622;50.840;4.948;2023-03-19T15:27:20;13.80;99.90
11136;DHT22;5622;50.840;4.948;2023-03-19T15:29:49;13.80;99.90
11136;DHT22;5622;50.840;4.948;2023-03-19T15:32:35;13.70;99.90
11136;DHT22;5622;50.840;4.948;2023-03-19T15:35:04;13.60;99.90
11136;DHT22;5622;50.840;4.948;2023-03-19T15:37:38;13.70;99.90
11136;DHT22;5622;50.840;4.948;2023-03-19T15:40:14;13.50;99.90
11136;DHT22;5622;50.840;4.948;2023-03-19T15:42:46;13.30;99.90
11136;DHT22;5622;50.840;4.948;2023-03-19T15:45:21;13.70;99.90
11136;DHT22;5622;50.840;4.948;2023-03-19T15:48:02;13.40;99.90
11136;DHT22;5622;50.840;4.948;2023-03-19T15:50:33;13.40;99.90
11136;DHT22;5622;50.840;4.948;2023-03-19T15:53:06;13.30;99.90
11136;DHT22;5622;50.840;4.948;2023-03-19T15:55:38;13.50;99.90
11136;DHT22;5622;50.840;4.948;2023-03-19T15:58:26;13.00;99.90
11136;DHT22;5622;50.840;4.948;2023-03-19T16:00:58;13.40;99.90
11136;DHT22;5622;50.840;4.948;2023-03-19T16:03:36;13.10;99.90
11136;DHT22;5622;50.840;4.948;2023-03-19T16:06:11;13.30;99.90
11136;DHT22;5622;50.840;4.948;2023-03-19T16:08:49;13.40;99.90
11136;DHT22;5622;50.840;4.948;2023-03-19T16:11:27;13.50;99.90
11136;DHT22;5622;50.840;4.948;2023-03-19T16:14:14;13.50;99.90
11136;DHT22;5622;50.840;4.948;2023-03-19T16:16:50;14.40;99.90
11136;DHT22;5622;50.840;4.948;2023-03-19T16:19:29;13.50;99.90
11136;DHT22;5622;50.840;4.948;2023-03-19T16:22:14;15.20;99.90
11136;DHT22;5622;50.840;4.948;2023-03-19T16:24:47;13.60;99.90
11136;DHT22;5622;50.840;4.948;2023-03-19T16:27:24;13.40;99.90
11136;DHT22;5622;50.840;4.948;2023-03-19T16:30:15;13.40;99.90
11136;DHT22;5622;50.840;4.948;2023-03-19T16:32:59;13.70;99.90
11136;DHT22;5622;50.840;4.948;2023-03-19T16:35:31;13.40;99.90
11136;DHT22;5622;50.840;4.948;2023-03-19T16:38:13;13.30;99.90
11136;DHT22;5622;50.840;4.948;2023-03-19T16:40:47;13.30;99.90
11136;DHT22;5622;50.840;4.948;2023-03-19T16:43:31;13.00;99.90
11136;DHT22;5622;50.840;4.948;2023-03-19T16:46:11;13.20;99.90
11136;DHT22;5622;50.840;4.948;2023-03-19T16:48:48;12.70;99.90
11136;DHT22;5622;50.840;4.948;2023-03-19T16:51:28;13.00;99.90
11136;DHT22;5622;50.840;4.948;2023-03-19T16:53:58;12.80;99.90
11136;DHT22;5622;50.840;4.948;2023-03-19T16:56:35;12.70;99.90
11136;DHT22;5622;50.840;4.948;2023-03-19T16:59:07;12.70;99.90
11136;DHT22;5622;50.840;4.948;2023-03-19T17:01:44;12.50;99.90
11136;DHT22;5622;50.840;4.948;2023-03-19T17:04:14;12.00;99.90
11136;DHT22;5622;50.840;4.948;2023-03-19T17:06:43;12.30;99.90
11136;DHT22;5622;50.840;4.948;2023-03-19T17:09:16;12.20;99.90
11136;DHT22;5622;50.840;4.948;2023-03-19T17:11:49;12.00;99.90
11136;DHT22;5622;50.840;4.948;2023-03-19T17:14:22;11.90;99.90
11136;DHT22;5622;50.840;4.948;2023-03-19T17:16:56;11.90;99.90
11136;DHT22;5622;50.840;4.948;2023-03-19T17:19:29;11.90;99.90
11136;DHT22;5622;50.840;4.948;2023-03-19T17:21:59;11.70;99.90
11136;DHT22;5622;50.840;4.948;2023-03-19T17:24:31;11.60;99.90
11136;DHT22;5622;50.840;4.948;2023-03-19T17:27:03;11.50;99.90
11136;DHT22;5622;50.840;4.948;2023-03-19T17:29:36;11.50;99.90
11136;DHT22;5622;50.840;4.948;2023-03-19T17:32:19;11.40;99.90
11136;DHT22;5622;50.840;4.948;2023-03-19T17:34:52;11.30;99.90
11136;DHT22;5622;50.840;4.948;2023-03-19T17:39:59;11.30;99.90
11136;DHT22;5622;50.840;4.948;2023-03-19T17:45:27;11.20;99.90
11136;DHT22;5622;50.840;4.948;2023-03-19T18:01:23;11.10;99.90
11136;DHT22;5622;50.840;4.948;2023-03-19T18:04:16;11.10;99.90
11136;DHT22;5622;50.840;4.948;2023-03-19T18:07:07;11.00;99.90
11136;DHT22;5622;50.840;4.948;2023-03-19T18:13:19;11.00;99.90
11136;DHT22;5622;50.840;4.948;2023-03-19T18:16:30;10.90;99.90
11136;DHT22;5622;50.840;4.948;2023-03-19T18:19:35;10.80;99.90
11136;DHT22;5622;50.840;4.948;2023-03-19T18:22:39;10.90;99.90
11136;DHT22;5622;50.840;4.948;2023-03-19T18:25:27;10.80;99.90
11136;DHT22;5622;50.840;4.948;2023-03-19T18:28:09;10.80;99.90
11136;DHT22;5622;50.840;4.948;2023-03-19T18:30:48;10.80;99.90
11136;DHT22;5622;50.840;4.948;2023-03-19T18:33:36;10.80;99.90
11136;DHT22;5622;50.840;4.948;2023-03-19T18:36:13;10.90;99.90
11136;DHT22;5622;50.840;4.948;2023-03-19T18:38:51;10.60;99.90
11136;DHT22;5622;50.840;4.948;2023-03-19T18:41:29;10.70;99.90
11136;DHT22;5622;50.840;4.948;2023-03-19T18:44:02;10.60;99.90
11136;DHT22;5622;50.840;4.948;2023-03-19T18:46:41;10.60;99.90
11136;DHT22;5622;50.840;4.948;2023-03-19T18:49:22;10.60;99.90
11136;DHT22;5622;50.840;4.948;2023-03-19T18:52:18;10.60;99.90
11136;DHT22;5622;50.840;4.948;2023-03-19T19:37:38;10.20;99.90
11136;DHT22;5622;50.840;4.948;2023-03-19T19:44:13;10.70;99.90
11136;DHT22;5622;50.840;4.948;2023-03-19T19:47:23;10.20;99.90
11136;DHT22;5622;50.840;4.948;2023-03-19T19:50:59;10.10;99.90
11136;DHT22;5622;50.840;4.948;2023-03-19T20:00:15;10.10;99.90
11136;DHT22;5622;50.840;4.948;2023-03-19T20:02:59;10.00;99.90
11136;DHT22;5622;50.840;4.948;2023-03-19T20:05:42;10.00;99.90
11136;DHT22;5622;50.840;4.948;2023-03-19T20:08:31;10.00;99.90
11136;DHT22;5622;50.840;4.948;2023-03-19T20:11:16;10.10;99.90
11136;DHT22;5622;50.840;4.948;2023-03-19T20:14:14;10.10;99.90
11136;DHT22;5622;50.840;4.948;2023-03-19T20:16:59;10.10;99.90
11136;DHT22;5622;50.840;4.948;2023-03-19T20:19:37;10.00;99.90
11136;DHT22;5622;50.840;4.948;2023-03-19T20:22:23;10.00;99.90
11136;DHT22;5622;50.840;4.948;2023-03-19T20:24:58;10.00;99.90
11136;DHT22;5622;50.840;4.948;2023-03-19T20:27:33;10.00;99.90
11136;DHT22;5622;50.840;4.948;2023-03-19T20:30:02;10.00;99.90
11136;DHT22;5622;50.840;4.948;2023-03-19T20:32:55;9.90;99.90
11136;DHT22;5622;50.840;4.948;2023-03-19T20:35:31;10.00;99.90
11136;DHT22;5622;50.840;4.948;2023-03-19T20:38:11;9.90;99.90
11136;DHT22;5622;50.840;4.948;2023-03-19T20:40:57;9.90;99.90
11136;DHT22;5622;50.840;4.948;2023-03-19T20:43:42;9.70;99.90
11136;DHT22;5622;50.840;4.948;2023-03-19T20:46:25;9.90;99.90
11136;DHT22;5622;50.840;4.948;2023-03-19T20:49:20;9.80;99.90
11136;DHT22;5622;50.840;4.948;2023-03-19T20:51:56;9.80;99.90
11136;DHT22;5622;50.840;4.948;2023-03-19T20:54:29;9.80;99.90
11136;DHT22;5622;50.840;4.948;2023-03-19T20:57:24;9.80;99.90
11136;DHT22;5622;50.840;4.948;2023-03-19T21:00:17;9.90;99.90
11136;DHT22;5622;50.840;4.948;2023-03-19T21:02:51;9.80;99.90
11136;DHT22;5622;50.840;4.948;2023-03-19T21:08:51;9.80;99.90
11136;DHT22;5622;50.840;4.948;2023-03-19T21:11:35;9.70;99.90
11136;DHT22;5622;50.840;4.948;2023-03-19T21:14:16;9.60;99.90
11136;DHT22;5622;50.840;4.948;2023-03-19T21:16:48;9.50;99.90
11136;DHT22;5622;50.840;4.948;2023-03-19T21:19:15;9.60;99.90
11136;DHT22;5622;50.840;4.948;2023-03-19T21:21:43;9.60;99.90
11136;DHT22;5622;50.840;4.948;2023-03-19T21:24:16;9.50;99.90
11136;DHT22;5622;50.840;4.948;2023-03-19T21:26:46;9.50;99.90
11136;DHT22;5622;50.840;4.948;2023-03-19T21:29:24;9.50;99.90
11136;DHT22;5622;50.840;4.948;2023-03-19T21:31:54;9.60;99.90